Time;durP1;ratioP1;P1;durP2;ratioP2;P2;SDS_P1;SDS_P2;PMS_P1;PMS_P2;Temp;Humidity;BMP_temperature;BMP_pressure;BME280_temperature;BME280_humidity;BME280_pressure;Samples;Min_cycle;Max_cycle;Signal;HPM_P1;HPM_P2
2022/06/06 06:36:52;;;;;;;;;1.00;1.00;;;;;17.94;100.00;100033.22;4927690;28;45141;-95
2022/06/06 06:39:32;;;;;;;;;2.00;2.00;;;;;18.01;100.00;100040.34;4933100;28;45514;-96
2022/06/06 06:42:21;;;;;;;;;1.67;1.67;;;;;18.09;100.00;100029.75;4933406;28;44712;-95
2022/06/06 06:45:27;;;;;;;;;3.00;2.00;;;;;18.15;100.00;100032.41;4930227;28;45420;-96
2022/06/06 06:48:00;;;;;;;;;4.00;2.00;;;;;18.23;100.00;100043.09;4924139;28;47429;-95
2022/06/06 06:50:41;;;;;;;;;1.67;1.67;;;;;18.27;100.00;100042.19;4912636;28;45506;-96
2022/06/06 06:53:36;;;;;;;;;2.33;1.33;;;;;18.33;100.00;100040.44;4913068;28;45385;-96
2022/06/06 06:56:22;;;;;;;;;2.00;2.00;;;;;18.39;100.00;100037.81;4918960;28;45444;-96
2022/06/06 06:58:54;;;;;;;;;1.00;1.00;;;;;18.41;100.00;100028.97;4908723;29;47110;-94
2022/06/06 07:11:12;;;;;;;;;2.33;1.00;;;;;18.60;100.00;100036.06;4914328;28;45866;-95
2022/06/06 07:13:52;;;;;;;;;2.00;2.00;;;;;18.70;100.00;100028.97;4932776;28;45429;-95
2022/06/06 07:16:27;;;;;;;;;1.67;1.00;;;;;18.61;100.00;100017.44;4947618;28;45269;-95
2022/06/06 07:19:01;;;;;;;;;1.67;1.33;;;;;18.65;100.00;100039.59;4933454;28;45269;-95
2022/06/06 07:21:30;;;;;;;;;2.00;1.00;;;;;18.66;100.00;100028.06;4925769;28;48700;-95
2022/06/06 07:23:59;;;;;;;;;1.00;1.00;;;;;18.65;100.00;100024.56;4951697;23;45315;-96
2022/06/06 07:26:26;;;;;;;;;1.00;1.00;;;;;18.71;100.00;100033.41;4961032;28;45365;-94
2022/06/06 07:28:51;;;;;;;;;1.33;1.33;;;;;18.80;100.00;100038.72;4958173;28;45241;-95
2022/06/06 07:31:28;;;;;;;;;2.00;1.00;;;;;18.91;100.00;100022.78;4951988;28;46317;-96
2022/06/06 07:34:29;;;;;;;;;0.67;0.67;;;;;19.04;100.00;100023.66;4952982;28;45317;-96
2022/06/06 07:37:07;;;;;;;;;1.00;1.00;;;;;19.14;100.00;100021.84;4948124;28;45204;-95
2022/06/06 07:40:10;;;;;;;;;1.00;1.00;;;;;19.30;100.00;100019.19;4922499;28;45571;-94
2022/06/06 07:43:05;;;;;;;;;3.00;1.33;;;;;19.38;100.00;100016.50;4928958;28;46183;-95
2022/06/06 07:45:41;;;;;;;;;0.00;0.00;;;;;19.45;100.00;100014.69;4949222;28;45204;-95
2022/06/06 07:48:24;;;;;;;;;0.67;0.67;;;;;19.50;100.00;100005.81;4940831;28;45363;-91
2022/06/06 07:51:09;;;;;;;;;2.00;1.00;;;;;19.56;100.00;99993.38;4936355;28;45537;-94
2022/06/06 07:54:05;;;;;;;;;1.00;0.67;;;;;19.67;100.00;99980.91;5050448;28;45070;-94
2022/06/06 07:56:31;;;;;;;;;2.33;2.00;;;;;19.76;100.00;99974.66;5032117;28;45511;-93
2022/06/06 07:59:15;;;;;;;;;1.00;1.00;;;;;19.85;100.00;99979.91;5034482;28;45377;-94
2022/06/06 08:02:05;;;;;;;;;1.00;1.00;;;;;19.94;100.00;99980.75;5041278;28;45625;-96
2022/06/06 08:04:36;;;;;;;;;1.00;1.00;;;;;19.96;100.00;99977.19;5044136;28;47028;-96
2022/06/06 08:07:16;;;;;;;;;0.67;0.67;;;;;19.97;100.00;99967.44;5046268;28;45557;-94
2022/06/06 08:10:00;;;;;;;;;1.00;1.00;;;;;19.98;100.00;99961.19;5043383;28;45400;-96
2022/06/06 08:12:49;;;;;;;;;1.33;1.33;;;;;20.06;100.00;99972.69;5161769;22;45915;-96
2022/06/06 08:20:36;;;;;;;;;2.33;1.00;;;;;20.28;100.00;99993.00;5082664;28;45015;-96
2022/06/06 08:23:04;;;;;;;;;1.00;1.00;;;;;20.44;100.00;100001.75;5069317;28;45150;-96
2022/06/06 08:25:33;;;;;;;;;1.00;1.00;;;;;20.62;100.00;99992.72;5060202;28;46234;-95
2022/06/06 08:30:35;;;;;;;;;2.00;1.00;;;;;20.86;100.00;99961.41;5681211;22;46209;-94
2022/06/06 08:33:01;;;;;;;;;1.00;1.00;;;;;21.03;100.00;99970.19;5098293;27;45317;-95
2022/06/06 08:35:39;;;;;;;;;1.67;1.00;;;;;21.19;100.00;99986.88;5096440;27;46437;-91
2022/06/06 08:38:33;;;;;;;;;0.00;0.00;;;;;21.25;100.00;99970.81;5084344;27;44792;-93
2022/06/06 08:41:09;;;;;;;;;1.00;1.00;;;;;21.32;100.00;99969.84;5086398;28;44848;-95
2022/06/06 08:44:00;;;;;;;;;1.00;1.00;;;;;21.44;100.00;99973.28;5058518;27;45097;-94
2022/06/06 08:46:34;;;;;;;;;1.00;1.00;;;;;21.50;100.00;99978.50;5089657;27;47386;-95
2022/06/06 08:52:49;;;;;;;;;3.00;1.00;;;;;21.66;100.00;99976.53;5104786;27;45492;-93
2022/06/06 08:55:34;;;;;;;;;1.67;1.00;;;;;21.73;100.00;99981.78;5073896;27;45393;-92
2022/06/06 08:58:38;;;;;;;;;2.33;1.33;;;;;21.82;100.00;99983.47;5080434;27;47105;-92
2022/06/06 09:01:25;;;;;;;;;1.00;1.00;;;;;21.89;100.00;99993.19;5101282;27;45331;-92
2022/06/06 09:04:21;;;;;;;;;1.00;1.00;;;;;21.98;100.00;99970.81;5083973;27;45297;-94
2022/06/06 09:07:06;;;;;;;;;2.00;1.00;;;;;21.97;100.00;99972.59;5062110;28;45473;-94
2022/06/06 09:09:49;;;;;;;;;0.00;0.00;;;;;22.06;100.00;99978.72;5070811;28;47972;-94
2022/06/06 09:12:33;;;;;;;;;2.00;0.00;;;;;22.23;100.00;99980.22;5065602;28;45428;-92
2022/06/06 09:15:20;;;;;;;;;1.00;1.00;;;;;22.42;100.00;100018.25;5075761;28;44958;-92
2022/06/06 09:18:39;;;;;;;;;1.00;1.00;;;;;22.63;100.00;100066.94;5087104;28;45626;-89
2022/06/06 09:21:04;;;;;;;;;0.00;0.00;;;;;22.85;100.00;100090.72;5066464;28;48613;-95
2022/06/06 09:23:47;;;;;;;;;1.00;1.00;;;;;22.80;100.00;100127.34;5079483;28;44809;-94
2022/06/06 09:26:40;;;;;;;;;0.00;0.00;;;;;22.84;100.00;100096.94;5071917;28;44823;-93
2022/06/06 09:29:31;;;;;;;;;0.00;0.00;;;;;23.14;100.00;100041.13;5063137;28;45983;-94
2022/06/06 09:32:20;;;;;;;;;0.00;0.00;;;;;23.26;100.00;100143.53;5060017;28;47350;-93
2022/06/06 09:35:01;;;;;;;;;0.00;0.00;;;;;23.33;100.00;100078.28;5077390;28;45414;-93
2022/06/06 09:37:38;;;;;;;;;1.33;1.33;;;;;23.44;100.00;100094.13;5071108;28;45303;-92
2022/06/06 09:40:35;;;;;;;;;2.67;1.00;;;;;23.67;100.00;100060.69;5089089;28;44730;-96
2022/06/06 09:43:00;;;;;;;;;0.33;0.00;;;;;23.93;100.00;100072.66;5086266;28;45643;-93
2022/06/06 09:45:47;;;;;;;;;0.00;0.00;;;;;24.13;100.00;100110.66;5066969;28;46062;-96
2022/06/06 09:48:25;;;;;;;;;0.00;0.00;;;;;24.40;100.00;100092.25;5073382;28;44912;-96
2022/06/06 09:51:25;;;;;;;;;0.00;0.00;;;;;25.70;100.00;100045.97;5080260;28;45470;-92
2022/06/06 10:00:24;;;;;;;;;0.67;0.67;;;;;28.59;100.00;100118.84;5080893;27;45668;-91
2022/06/06 10:03:12;;;;;;;;;0.00;0.00;;;;;28.93;100.00;100239.00;5089200;28;45669;-93
2022/06/06 10:06:04;;;;;;;;;1.00;0.00;;;;;28.17;100.00;100258.91;5077648;27;46666;-94
2022/06/06 10:09:01;;;;;;;;;0.00;0.00;;;;;29.91;100.00;100259.34;5061912;28;45326;-94
2022/06/06 10:11:45;;;;;;;;;0.00;0.00;;;;;32.33;100.00;100218.78;5053361;28;45282;-91
2022/06/06 10:14:24;;;;;;;;;1.00;1.00;;;;;32.79;100.00;100382.94;5063778;28;45546;-93
2022/06/06 10:17:11;;;;;;;;;0.33;0.33;;;;;32.15;100.00;100389.84;5079497;28;46230;-91
2022/06/06 10:20:19;;;;;;;;;29.33;28.67;;;;;30.76;100.00;100455.06;5082816;28;45392;-91
2022/06/06 10:22:57;;;;;;;;;1.67;1.67;;;;;29.65;100.00;100417.22;5061375;28;45493;-92
2022/06/06 10:25:54;;;;;;;;;2.67;1.00;;;;;28.67;100.00;100411.00;5083076;27;45454;-90
2022/06/06 10:28:32;;;;;;;;;2.00;1.00;;;;;27.86;100.00;100366.94;5059685;28;47263;-91
2022/06/06 10:31:33;;;;;;;;;1.00;1.00;;;;;27.94;100.00;100271.41;5085457;28;45668;-90
2022/06/06 10:34:08;;;;;;;;;0.00;0.00;;;;;27.52;100.00;100328.47;5061037;28;45738;-93
2022/06/06 10:36:49;;;;;;;;;0.33;0.33;;;;;27.31;100.00;100340.84;5056415;28;45611;-93
2022/06/06 10:45:23;;;;;;;;;0.00;0.00;;;;;34.83;100.00;100820.91;5177161;22;44797;-94
2022/06/06 10:48:16;;;;;;;;;1.33;1.00;;;;;34.88;100.00;101235.94;5024507;28;45365;-91
2022/06/06 10:54:21;;;;;;;;;16.67;16.67;;;;;32.92;100.00;101143.22;5052317;28;45463;-89
2022/06/06 10:57:10;;;;;;;;;1.00;0.67;;;;;34.96;100.00;101121.03;5030057;28;45472;-89
2022/06/06 11:00:13;;;;;;;;;20.00;17.67;;;;;36.00;100.00;101249.34;5053038;28;45372;-91
2022/06/06 11:03:15;;;;;;;;;1.67;1.67;;;;;37.26;100.00;101161.03;5047591;28;46726;-89
2022/06/06 11:19:18;;;;;;;;;1.00;1.00;;;;;42.63;79.34;101408.16;5281794;22;44928;-91
2022/06/06 11:25:01;;;;;;;;;6.00;4.00;;;;;40.61;78.31;101394.09;5076169;22;45849;-91
2022/06/06 11:27:36;;;;;;;;;0.33;0.33;;;;;38.07;75.80;101404.38;5049730;28;45274;-91
2022/06/06 11:30:17;;;;;;;;;0.33;0.00;;;;;36.15;76.08;101397.84;5045375;28;45483;-92
2022/06/06 11:33:20;;;;;;;;;0.00;0.00;;;;;35.39;79.53;101372.56;5049229;28;44819;-93
2022/06/06 11:47:37;;;;;;;;;0.00;0.00;;;;;33.70;84.29;101321.25;5051453;23;45133;-93
2022/06/06 11:50:28;;;;;;;;;0.00;0.00;;;;;32.75;82.08;101330.53;5469310;22;46222;-93
2022/06/06 11:53:10;;;;;;;;;0.00;0.00;;;;;33.45;88.59;101257.94;5015087;28;45184;-89
2022/06/06 12:00:49;;;;;;;;;0.00;0.00;;;;;40.11;87.16;101322.44;5255564;22;45095;-94
2022/06/06 12:03:39;;;;;;;;;0.00;0.00;;;;;40.68;79.92;101373.41;5043039;22;45773;-93
2022/06/06 12:06:14;;;;;;;;;0.00;0.00;;;;;39.14;76.98;101383.09;4980596;28;44907;-92
2022/06/06 12:11:32;;;;;;;;;0.00;0.00;;;;;36.72;74.33;101376.56;4997370;28;44722;-92
2022/06/06 12:14:35;;;;;;;;;1.00;1.00;;;;;36.07;72.37;101381.88;4978279;28;44790;-94
2022/06/06 12:17:22;;;;;;;;;0.00;0.00;;;;;36.18;77.90;101353.09;4993472;28;45224;-92
2022/06/06 12:20:11;;;;;;;;;0.00;0.00;;;;;34.96;75.20;101358.25;4968629;28;47302;-91
2022/06/06 12:22:49;;;;;;;;;0.33;0.33;;;;;34.58;79.36;101331.88;4975530;28;44739;-91
2022/06/06 12:25:41;;;;;;;;;0.00;0.00;;;;;36.73;81.50;101318.16;4978556;28;44748;-93
2022/06/06 12:28:17;;;;;;;;;0.33;0.33;;;;;36.46;77.87;101346.13;4954384;28;45620;-92
2022/06/06 12:30:57;;;;;;;;;0.00;0.00;;;;;35.15;74.21;101364.66;4948447;28;45451;-92
2022/06/06 12:33:37;;;;;;;;;1.67;1.00;;;;;33.71;76.86;101336.63;4931544;28;45367;-92
2022/06/06 12:36:15;;;;;;;;;0.00;0.00;;;;;32.85;79.00;101302.97;4940980;28;45624;-92
2022/06/06 12:38:49;;;;;;;;;0.00;0.00;;;;;32.07;79.50;101293.19;4953802;28;45562;-91
2022/06/06 12:41:43;;;;;;;;;0.00;0.00;;;;;34.63;83.43;101260.78;4962662;28;46564;-92
2022/06/06 12:44:41;;;;;;;;;0.00;0.00;;;;;39.03;83.65;101288.66;4956343;28;44761;-91
2022/06/06 12:47:37;;;;;;;;;0.00;0.00;;;;;42.96;83.59;101298.75;4935891;28;45488;-93
2022/06/06 12:50:32;;;;;;;;;0.00;0.00;;;;;47.08;75.41;101357.81;4933738;28;45247;-94
2022/06/06 12:53:20;;;;;;;;;1.00;0.00;;;;;48.97;65.49;101378.72;4948448;28;45415;-95
2022/06/06 12:56:25;;;;;;;;;0.00;0.00;;;;;46.78;57.88;101393.22;4935962;28;45513;-90
2022/06/06 12:59:06;;;;;;;;;0.00;0.00;;;;;43.74;57.18;101396.19;4935840;28;44939;-91
2022/06/06 13:04:48;;;;;;;;;0.00;0.00;;;;;38.48;56.64;101382.69;5072747;23;45543;-89
2022/06/06 13:07:38;;;;;;;;;0.00;0.00;;;;;36.68;58.29;101377.69;5000616;28;46138;-88
2022/06/06 13:10:33;;;;;;;;;0.00;0.00;;;;;35.22;60.83;101377.03;5023905;28;45445;-90
2022/06/06 13:13:37;;;;;;;;;0.00;0.00;;;;;34.04;62.14;101365.19;5218301;22;45340;-91
2022/06/06 13:16:05;;;;;;;;;0.33;0.00;;;;;35.31;64.21;101345.66;4982848;28;45323;-90
2022/06/06 13:18:51;;;;;;;;;0.00;0.00;;;;;36.52;64.66;101340.28;4980874;28;45396;-90
2022/06/06 13:21:36;;;;;;;;;1.33;0.00;;;;;36.31;64.85;101343.22;4959190;28;45641;-90
2022/06/06 13:24:07;;;;;;;;;0.00;0.00;;;;;36.75;64.44;101339.97;4981125;28;45471;-93
2022/06/06 13:26:39;;;;;;;;;0.00;0.00;;;;;38.29;64.67;101336.38;4975771;28;45439;-86
2022/06/06 13:29:05;;;;;;;;;0.00;0.00;;;;;40.80;66.88;101327.59;4972612;28;45658;-91
2022/06/06 13:31:54;;;;;;;;;0.00;0.00;;;;;41.81;62.54;101347.56;4962263;28;45511;-91
2022/06/06 13:34:54;;;;;;;;;0.00;0.00;;;;;40.58;60.60;101350.31;4965097;28;45606;-92
2022/06/06 13:37:36;;;;;;;;;0.67;0.67;;;;;38.66;58.94;101347.72;4965966;28;52481;-90
2022/06/06 13:40:23;;;;;;;;;0.00;0.00;;;;;36.92;60.29;101339.03;4972588;28;45439;-90
2022/06/06 13:43:25;;;;;;;;;0.00;0.00;;;;;35.51;60.36;101350.16;4961223;28;45469;-87
2022/06/06 13:46:17;;;;;;;;;0.00;0.00;;;;;34.39;59.60;101350.91;4946544;28;45431;-88
2022/06/06 13:48:46;;;;;;;;;0.00;0.00;;;;;33.65;60.77;101344.13;4975577;28;45439;-89
2022/06/06 13:51:40;;;;;;;;;0.00;0.00;;;;;33.06;62.59;101338.38;4951598;28;45507;-90
2022/06/06 13:54:25;;;;;;;;;0.00;0.00;;;;;33.46;63.49;101338.56;4966786;28;45468;-90
2022/06/06 13:57:03;;;;;;;;;0.00;0.00;;;;;33.27;64.53;101335.75;4969557;28;45405;-88
2022/06/06 14:00:00;;;;;;;;;0.00;0.00;;;;;32.79;63.30;101334.00;4957481;28;46001;-88
2022/06/06 14:02:40;;;;;;;;;0.00;0.00;;;;;32.11;64.57;101332.91;4958378;28;45534;-89
2022/06/06 14:05:08;;;;;;;;;1.33;1.33;;;;;31.41;64.63;101331.66;4966186;28;45538;-88
2022/06/06 14:07:47;;;;;;;;;0.00;0.00;;;;;30.63;65.67;101316.00;4959889;28;45952;-90
2022/06/06 14:10:17;;;;;;;;;0.00;0.00;;;;;30.45;65.54;101329.16;4966389;28;47266;-90
2022/06/06 14:13:08;;;;;;;;;0.00;0.00;;;;;31.97;68.42;101296.25;4985488;28;45677;-90
2022/06/06 14:15:45;;;;;;;;;0.00;0.00;;;;;34.03;69.04;101276.28;4980762;28;45674;-90
2022/06/06 14:18:18;;;;;;;;;0.00;0.00;;;;;34.06;65.75;101304.25;4984386;28;45549;-88
2022/06/06 14:20:46;;;;;;;;;0.00;0.00;;;;;33.29;65.79;101309.38;4966067;28;47417;-90
2022/06/06 14:23:37;;;;;;;;;0.00;0.00;;;;;32.24;65.51;101300.72;4997871;28;44742;-91
2022/06/06 14:26:12;;;;;;;;;0.33;0.00;;;;;31.65;65.98;101295.59;4976975;28;44689;-93
2022/06/06 14:28:43;;;;;;;;;0.00;0.00;;;;;31.33;66.27;101290.34;4964244;28;45444;-91
2022/06/06 14:31:27;;;;;;;;;0.00;0.00;;;;;31.18;67.23;101299.88;4971301;28;45671;-91
2022/06/06 14:33:55;;;;;;;;;0.00;0.00;;;;;31.11;66.17;101301.88;4983343;28;45348;-90
2022/06/06 14:36:27;;;;;;;;;0.00;0.00;;;;;31.58;67.95;101277.75;4953528;28;45363;-91
2022/06/06 14:39:03;;;;;;;;;0.00;0.00;;;;;32.08;66.96;101294.97;4966930;28;45359;-91
2022/06/06 14:41:44;;;;;;;;;0.00;0.00;;;;;31.89;66.20;101312.84;4963946;28;47146;-90
2022/06/06 14:44:10;;;;;;;;;0.33;0.00;;;;;31.45;65.97;101306.19;4960206;28;45454;-91
2022/06/06 14:46:48;;;;;;;;;0.00;0.00;;;;;31.05;65.93;101305.69;4991285;28;45346;-93
2022/06/06 14:49:29;;;;;;;;;0.00;0.00;;;;;30.60;65.92;101304.34;4964266;28;45414;-90
2022/06/06 14:51:56;;;;;;;;;0.00;0.00;;;;;30.17;67.37;101292.03;5068186;23;45560;-90
2022/06/06 14:54:23;;;;;;;;;0.00;0.00;;;;;29.84;66.34;101319.97;5028605;28;45392;-90
2022/06/06 14:57:12;;;;;;;;;0.00;0.00;;;;;29.40;67.38;101295.88;5017369;28;45370;-89
2022/06/06 14:59:58;;;;;;;;;0.00;0.00;;;;;29.26;68.87;101278.19;5040972;28;44863;-89
2022/06/06 15:02:35;;;;;;;;;0.00;0.00;;;;;29.21;69.72;101269.31;5011849;28;45777;-90
2022/06/06 15:05:25;;;;;;;;;0.00;0.00;;;;;29.03;69.96;101265.22;4987649;28;44852;-89
2022/06/06 15:07:57;;;;;;;;;0.33;0.33;;;;;28.96;68.69;101259.06;4992794;28;45372;-89
2022/06/06 15:10:43;;;;;;;;;2.00;0.33;;;;;29.04;69.19;101280.50;5019799;28;44891;-89
2022/06/06 15:13:10;;;;;;;;;0.00;0.00;;;;;28.84;68.74;101288.16;5014061;28;46408;-93
2022/06/06 15:15:37;;;;;;;;;0.00;0.00;;;;;28.47;69.88;101273.69;4992430;28;45471;-91
2022/06/06 15:18:03;;;;;;;;;0.00;0.00;;;;;28.13;70.06;101272.53;5019054;28;45307;-92
2022/06/06 15:20:33;;;;;;;;;0.00;0.00;;;;;27.79;70.75;101263.28;4996346;28;45558;-90
2022/06/06 15:23:18;;;;;;;;;0.00;0.00;;;;;27.56;71.32;101251.13;5000815;28;45437;-91
2022/06/06 15:26:07;;;;;;;;;1.00;1.00;;;;;27.31;71.24;101228.22;4976491;28;45434;-91
2022/06/06 15:28:45;;;;;;;;;1.50;0.00;;;;;27.27;71.50;101225.56;4993451;28;45340;-89
2022/06/06 15:31:47;;;;;;;;;1.00;1.00;;;;;27.33;72.75;101206.59;4996786;28;45462;-91
2022/06/06 15:34:36;;;;;;;;;0.00;0.00;;;;;27.47;72.74;101209.06;4997601;28;47355;-89
2022/06/06 15:37:41;;;;;;;;;0.00;0.00;;;;;27.55;72.70;101215.19;5016249;28;45417;-89
2022/06/06 15:40:32;;;;;;;;;0.00;0.00;;;;;27.48;72.62;101197.34;5023947;28;44890;-90
2022/06/06 15:43:29;;;;;;;;;0.00;0.00;;;;;27.52;74.36;101185.56;5011353;28;45239;-89
2022/06/06 15:46:27;;;;;;;;;0.00;0.00;;;;;27.50;73.42;101200.00;5014875;28;45633;-89
2022/06/06 15:49:21;;;;;;;;;2.00;0.33;;;;;27.47;73.47;101197.38;5003597;28;45406;-89
2022/06/06 15:51:55;;;;;;;;;0.00;0.00;;;;;27.49;73.61;101209.03;4992220;28;45348;-89
2022/06/06 15:54:49;;;;;;;;;0.00;0.00;;;;;27.30;74.45;101194.06;5010403;28;44941;-89
2022/06/06 15:57:33;;;;;;;;;0.00;0.00;;;;;27.03;73.19;101206.19;5023584;28;46454;-90
2022/06/06 16:00:01;;;;;;;;;0.00;0.00;;;;;26.74;74.97;101174.34;5026531;28;45693;-94
2022/06/06 16:02:38;;;;;;;;;0.33;0.33;;;;;26.48;74.40;101189.09;5017539;28;45401;-87
2022/06/06 16:05:19;;;;;;;;;0.00;0.00;;;;;26.36;74.66;101181.16;5008695;28;45629;-93
2022/06/06 16:08:16;;;;;;;;;0.33;0.00;;;;;26.29;74.55;101169.56;5012912;28;45295;-86
2022/06/06 16:10:56;;;;;;;;;1.00;1.00;;;;;26.17;75.30;101160.78;4893759;28;46648;-86
2022/06/06 16:13:41;;;;;;;;;0.00;0.00;;;;;26.05;75.87;101132.25;4881080;28;45677;-88
2022/06/06 16:16:13;;;;;;;;;1.00;1.00;;;;;25.90;74.49;101160.22;4895445;28;45954;-87
2022/06/06 16:18:52;;;;;;;;;0.00;0.00;;;;;25.72;75.74;101145.19;4884804;29;45619;-85
2022/06/06 16:21:21;;;;;;;;;0.33;0.00;;;;;25.54;75.26;101149.84;4886721;29;45667;-84
2022/06/06 16:23:55;;;;;;;;;0.33;0.33;;;;;25.40;76.60;101115.09;4867762;28;45720;-85
2022/06/06 16:26:28;;;;;;;;;1.33;1.33;;;;;25.31;77.01;101105.31;4875523;29;45558;-85
2022/06/06 16:29:17;;;;;;;;;1.33;0.00;;;;;25.27;75.73;101135.81;4878911;29;48554;-84
2022/06/06 16:31:48;;;;;;;;;0.00;0.00;;;;;25.26;75.29;101147.44;4894727;28;47050;-84
2022/06/06 16:34:24;;;;;;;;;0.00;0.00;;;;;25.28;76.13;101135.78;4884412;28;45454;-84
2022/06/06 16:36:58;;;;;;;;;0.33;0.33;;;;;25.33;76.83;101119.66;4893915;29;45460;-85
2022/06/06 16:39:25;;;;;;;;;0.00;0.00;;;;;25.35;76.75;101127.69;4881545;28;45611;-85
2022/06/06 16:48:13;;;;;;;;;1.00;0.33;;;;;24.96;78.32;101078.78;5004453;28;45350;-84
2022/06/06 16:50:49;;;;;;;;;1.00;1.00;;;;;24.94;78.14;101074.34;4995995;28;47763;-86
2022/06/06 16:53:38;;;;;;;;;0.00;0.00;;;;;24.83;78.73;101067.28;5008052;28;45325;-84
2022/06/06 16:56:29;;;;;;;;;2.33;0.33;;;;;24.62;78.34;101076.41;5003750;28;45561;-84
2022/06/06 16:59:23;;;;;;;;;1.00;1.00;;;;;24.43;78.92;101052.44;5015172;28;45367;-83
2022/06/06 17:02:01;;;;;;;;;0.00;0.00;;;;;24.27;79.24;101052.56;5002055;28;45658;-83
2022/06/06 17:04:27;;;;;;;;;0.00;0.00;;;;;24.15;79.43;101048.09;5011641;28;45610;-84
2022/06/06 17:09:44;;;;;;;;;0.00;0.00;;;;;24.08;80.90;101008.84;5009242;28;45516;-84
2022/06/06 17:12:35;;;;;;;;;2.00;0.33;;;;;23.98;81.53;100976.75;5004776;28;46313;-84
2022/06/06 17:15:21;;;;;;;;;0.00;0.00;;;;;23.89;81.74;100966.06;5004965;28;45444;-83
2022/06/06 17:17:47;;;;;;;;;1.00;1.00;;;;;23.76;82.12;100955.44;4985380;28;45566;-83
2022/06/06 17:20:35;;;;;;;;;2.00;1.00;;;;;23.60;82.34;100935.00;5007424;28;45740;-84
2022/06/06 17:23:06;;;;;;;;;1.00;1.00;;;;;23.53;83.17;100923.41;4982129;28;47177;-83
2022/06/06 17:25:45;;;;;;;;;1.33;1.33;;;;;23.44;83.56;100873.47;4996324;28;45613;-84
2022/06/06 17:28:26;;;;;;;;;0.00;0.00;;;;;23.35;83.91;100870.84;5006046;28;45758;-84
2022/06/06 17:31:04;;;;;;;;;0.67;0.67;;;;;23.26;84.04;100850.38;4993606;28;45525;-87
2022/06/06 17:33:42;;;;;;;;;1.00;1.00;;;;;23.19;85.44;100814.72;4991951;28;46306;-86
2022/06/06 17:36:19;;;;;;;;;0.00;0.00;;;;;23.10;86.27;100756.75;4992939;28;45425;-86
2022/06/06 17:38:47;;;;;;;;;1.00;1.00;;;;;23.01;84.76;100818.41;4989894;28;45540;-88
2022/06/06 17:41:19;;;;;;;;;2.00;0.00;;;;;22.97;85.94;100774.69;5011201;28;45790;-88
2022/06/06 17:44:04;;;;;;;;;1.00;0.33;;;;;22.92;85.83;100785.44;4992419;28;48308;-86
2022/06/06 17:46:35;;;;;;;;;0.00;0.00;;;;;22.95;85.74;100792.53;5006655;28;45451;-88
2022/06/06 17:49:32;;;;;;;;;0.00;0.00;;;;;22.94;87.05;100726.53;4995713;28;45600;-89
2022/06/06 17:52:25;;;;;;;;;0.00;0.00;;;;;22.89;86.95;100745.28;5018018;28;45288;-88
2022/06/06 17:55:16;;;;;;;;;0.00;0.00;;;;;22.83;87.24;100753.38;4990089;28;48643;-89
2022/06/06 17:58:09;;;;;;;;;1.00;1.00;;;;;22.80;87.81;100710.56;5012347;28;45469;-88
2022/06/06 18:00:51;;;;;;;;;0.33;0.00;;;;;22.82;88.01;100720.38;5009159;28;45515;-88
2022/06/06 18:03:47;;;;;;;;;0.00;0.00;;;;;22.88;87.60;100741.72;4997784;28;45635;-90
2022/06/06 18:06:54;;;;;;;;;0.33;0.33;;;;;22.98;88.65;100694.41;5005175;28;46590;-90
2022/06/06 18:09:57;;;;;;;;;2.00;1.00;;;;;23.02;87.11;100774.66;4937189;28;45416;-90
2022/06/06 18:12:37;;;;;;;;;0.00;0.00;;;;;22.96;87.65;100754.19;4961591;28;45427;-89
2022/06/06 18:15:26;;;;;;;;;2.00;2.00;;;;;22.87;89.31;100690.91;4959615;28;45841;-90
2022/06/06 18:18:10;;;;;;;;;0.33;0.33;;;;;22.76;89.14;100669.56;4956152;28;46602;-88
2022/06/06 18:20:47;;;;;;;;;0.67;0.00;;;;;22.68;90.08;100645.50;4967143;28;45367;-88
2022/06/06 18:25:57;;;;;;;;;0.00;0.00;;;;;22.50;91.90;100551.13;5173087;22;45738;-88
2022/06/06 18:28:44;;;;;;;;;0.00;0.00;;;;;22.40;90.67;100608.25;5011325;28;46095;-89
2022/06/06 18:31:20;;;;;;;;;0.67;0.00;;;;;22.30;89.47;100636.81;5022084;28;45445;-87
2022/06/06 18:34:14;;;;;;;;;2.00;1.67;;;;;22.21;90.38;100645.81;4989556;28;45161;-88
2022/06/06 18:36:41;;;;;;;;;1.00;1.00;;;;;22.15;91.87;100552.28;5021945;28;46407;-88
2022/06/06 18:39:36;;;;;;;;;1.67;0.00;;;;;22.04;92.00;100523.81;5023071;28;45955;-89
2022/06/06 18:42:05;;;;;;;;;1.00;1.00;;;;;21.96;91.92;100529.22;5006376;28;45477;-87
2022/06/06 18:44:36;;;;;;;;;0.00;0.00;;;;;21.94;92.45;100524.78;5015279;28;45297;-88
2022/06/06 18:47:02;;;;;;;;;0.67;0.67;;;;;21.86;93.23;100474.91;4992218;28;45711;-89
2022/06/06 18:49:29;;;;;;;;;1.67;1.00;;;;;21.85;92.73;100480.28;4988815;28;48452;-88
2022/06/06 18:52:03;;;;;;;;;1.00;1.00;;;;;21.77;92.53;100510.59;5011051;28;45929;-87
2022/06/06 18:54:37;;;;;;;;;1.00;0.00;;;;;21.70;92.94;100506.16;4993828;28;45644;-87
2022/06/06 18:57:13;;;;;;;;;0.67;0.67;;;;;21.63;92.74;100502.66;4986825;28;45385;-87
2022/06/06 18:59:44;;;;;;;;;0.00;0.00;;;;;21.57;92.55;100518.69;4985316;28;46459;-87
2022/06/06 19:02:37;;;;;;;;;1.00;1.00;;;;;21.52;93.21;100480.44;4993635;28;45312;-87
2022/06/06 19:05:28;;;;;;;;;0.00;0.00;;;;;21.51;94.74;100449.31;4998782;28;45389;-88
2022/06/06 19:08:03;;;;;;;;;1.67;0.00;;;;;21.49;94.32;100448.44;4989964;28;45350;-88
2022/06/06 19:10:35;;;;;;;;;1.00;1.00;;;;;21.46;95.42;100395.03;4984526;28;47441;-87
2022/06/06 19:13:19;;;;;;;;;0.00;0.00;;;;;21.40;96.51;100359.47;5005762;28;45477;-87
2022/06/06 19:15:47;;;;;;;;;1.00;1.00;;;;;21.33;97.27;100304.34;4992930;28;45563;-86
2022/06/06 19:18:15;;;;;;;;;0.00;0.00;;;;;21.29;97.93;100271.44;5000928;28;45908;-87
2022/06/06 19:21:01;;;;;;;;;1.00;1.00;;;;;21.21;98.96;100215.47;5004105;28;45521;-86
2022/06/06 19:23:46;;;;;;;;;2.33;2.33;;;;;21.16;99.60;100187.94;4985191;28;45747;-87
2022/06/06 19:26:25;;;;;;;;;1.33;1.00;;;;;21.08;98.87;100208.47;4993773;28;45662;-87
2022/06/06 19:28:55;;;;;;;;;1.00;1.00;;;;;21.05;100.00;100144.44;4994382;28;45551;-87
2022/06/06 19:31:20;;;;;;;;;2.33;2.33;;;;;20.98;100.00;100125.78;4991528;28;46959;-86
2022/06/06 19:33:48;;;;;;;;;0.67;0.00;;;;;20.94;100.00;100129.38;5011905;28;45496;-87
2022/06/06 19:36:19;;;;;;;;;1.67;1.67;;;;;20.87;100.00;100125.00;5009572;28;45438;-88
2022/06/06 19:38:45;;;;;;;;;2.00;2.00;;;;;20.84;100.00;100114.34;4991501;28;45351;-86
2022/06/06 19:41:23;;;;;;;;;4.67;4.00;;;;;20.78;100.00;100120.59;4988117;28;47124;-87
2022/06/06 19:43:50;;;;;;;;;1.00;1.00;;;;;20.75;100.00;100131.28;4986589;28;45732;-87
2022/06/06 19:46:23;;;;;;;;;2.00;1.33;;;;;20.71;100.00;100101.09;5010825;28;45802;-88
2022/06/06 19:48:54;;;;;;;;;1.00;1.00;;;;;20.65;100.00;100083.34;4999120;28;45472;-88
2022/06/06 19:51:33;;;;;;;;;1.00;1.00;;;;;20.62;100.00;100080.72;5015580;28;46607;-86
2022/06/06 19:54:10;;;;;;;;;2.00;2.00;;;;;20.58;100.00;100073.66;4998910;28;45509;-87
2022/06/06 19:56:44;;;;;;;;;1.00;1.00;;;;;20.54;100.00;100077.22;5015390;28;45405;-87
2022/06/06 19:59:23;;;;;;;;;1.00;1.00;;;;;20.48;100.00;100056.84;5013639;28;45388;-92
2022/06/06 20:02:46;;;;;;;;;2.00;2.00;;;;;20.46;100.00;100084.41;5024284;28;45432;-94
2022/06/06 20:06:02;;;;;;;;;1.00;1.00;;;;;20.41;100.00;100042.66;4896069;29;45452;-95
2022/06/06 20:09:25;;;;;;;;;2.00;1.67;;;;;20.27;100.00;100040.09;4895018;29;44853;-95
2022/06/06 20:16:12;;;;;;;;;3.00;1.33;;;;;20.24;100.00;100052.53;4816691;29;45384;-95
2022/06/06 20:19:06;;;;;;;;;;;;;;;;;;;;;
2022/06/06 20:22:22;;;;;;;;;4.00;2.00;;;;;20.09;100.00;100012.63;4779069;29;69232;-95
2022/06/06 20:32:32;;;;;;;;;1.00;1.00;;;;;20.05;100.00;100002.00;4723830;30;45502;-94
2022/06/06 20:36:02;;;;;;;;;;;;;;;;;;;;;
2022/06/06 20:39:19;;;;;;;;;5.00;3.67;;;;;20.16;100.00;100015.28;4673078;30;70477;-95
2022/06/06 20:42:18;;;;;;;;;1.00;1.00;;;;;20.15;100.00;100017.06;4676492;30;46856;-95
2022/06/06 20:44:56;;;;;;;;;2.33;2.33;;;;;20.16;100.00;100009.94;4705805;30;45577;-94
2022/06/06 20:50:50;;;;;;;;;2.00;2.00;;;;;20.08;100.00;99991.31;4725240;30;46804;-95
2022/06/06 20:57:52;;;;;;;;;;;;;;;;;;;;;
2022/06/06 21:00:34;;;;;;;;;;;;;;;;;;;;;
2022/06/06 21:07:18;;;;;;;;;;;;;;;;;;;;;